Lapaz, IN (46537)

6:42 PM EST on February 11, 2016 (GMT -0500)
Marshall County Building | | Change Station
CLOSE
Current Station
Personal Weather Station
Location: Plymouth, IN
Elevation: 814 ft
Nearby Weather Stations

Elev 814 ft 41.34 °N, 86.31 °W | Updated 11 minutes ago

Partly Cloudy
Partly Cloudy
18.8 °F
Feels Like 12 °F
N
5.0
Wind Variable Wind from WNW
Gusts 8.0 mph

Today
High -- | Low -- °F
--% Chance of Precip.
Yesterday
High -- | Low -- °F
Precip. -- in
Pressure 30.33 in
Visibility 10.0 miles
Clouds Clear
Windchill 12 °F
Dew Point 10 °F
Humidity 69%
Rainfall 0.02 in
Snow Depth Not available.
7:46 AM 6:13 PM
Waxing Crescent, 15% visible
METAR KSBN 112254Z 28005KT 10SM CLR M09/M14 A3028 RMK AO2 SLP271 T10941144
Pressure 30.33 in
Visibility 10.0 miles
Clouds Clear
Windchill 12 °F
Dew Point 10 °F
Humidity 69%
Rainfall 0.02 in
Snow Depth Not available.
7:46 AM 6:13 PM
Waxing Crescent, 15% visible
METAR KSBN 112254Z 28005KT 10SM CLR M09/M14 A3028 RMK AO2 SLP271 T10941144

10-Day Weather Forecast

Almanac

Astronomy

Feb. 11, 2016 Rise Set
Actual Time
Civil Twilight
Nautical Twilight
Astronomical Twilight
Moon
Length of Visible Light
Length of Day
Tomorrow will be .
, % of the Moon is Illuminated

Today's Extremes

State Highs State Lows

Community

WunderPhotos

Upload Photos

1,892,180 photos uploaded!

WunderBlog® & News

Nearby

Air Quality

  Air Quality AQ Index Pollutant
Not available.

Snow Depth

Station Depth Elevation

Earthquake Activity

City Distance Mag. Time & Date
Minimum magnitude displayed is 2.5.

Coastal Water Temperatures

Place Temperature

Stations

Nearby Weather Stations

Station Location Temp. Windchill Dew Point Humidity Wind Precip. Elev Updated Type
                   

Watches & Warnings

There are currently no watches in effect.